Time;durP1;ratioP1;P1;durP2;ratioP2;P2;SDS_P1;SDS_P2;PMS_P1;PMS_P2;Temp;Humidity;BMP_temperature;BMP_pressure;BME280_temperature;BME280_humidity;BME280_pressure;Samples;Min_cycle;Max_cycle;Signal;HPM_P1;HPM_P2
2021/03/12 00:00:36;;;;;;;5.20;1.30;;;7.50;83.50;;;;;;2056047;28;20030;-81
2021/03/12 00:01:37;;;;;;;7.15;1.45;;;7.50;83.50;;;;;;2057790;28;20042;-81
2021/03/12 00:02:38;;;;;;;7.53;1.20;;;7.50;83.50;;;;;;2056591;28;20389;-81
2021/03/12 00:03:38;;;;;;;4.10;1.05;;;7.50;83.50;;;;;;2049120;28;20039;-82
2021/03/12 00:04:39;;;;;;;8.77;1.63;;;7.50;83.40;;;;;;2060837;28;20539;-81
2021/03/12 00:05:45;;;;;;;8.23;1.30;;;7.50;83.40;;;;;;2073175;28;20109;-81
2021/03/12 00:06:45;;;;;;;8.77;1.67;;;7.50;83.40;;;;;;2068687;28;20577;-81
2021/03/12 00:07:46;;;;;;;5.65;1.45;;;7.50;83.30;;;;;;2068824;28;20042;-81
2021/03/12 00:08:47;;;;;;;6.75;1.45;;;7.50;83.30;;;;;;2074820;28;20021;-82
2021/03/12 00:09:48;;;;;;;5.07;1.13;;;7.50;83.40;;;;;;2068049;28;20037;-82
2021/03/12 00:10:48;;;;;;;6.95;1.35;;;7.50;83.30;;;;;;2057053;28;20023;-81
2021/03/12 00:11:49;;;;;;;8.13;1.45;;;7.50;83.20;;;;;;2080380;28;20105;-82
2021/03/12 00:12:51;;;;;;;7.47;1.17;;;7.50;83.20;;;;;;2079987;28;20037;-81
2021/03/12 00:13:51;;;;;;;5.63;1.33;;;7.50;83.10;;;;;;2072394;28;20379;-81
2021/03/12 00:14:52;;;;;;;6.18;1.42;;;7.50;83.10;;;;;;2064286;28;20030;-82
2021/03/12 00:15:54;;;;;;;5.10;1.10;;;7.50;83.10;;;;;;2049061;29;20032;-82
2021/03/12 00:16:55;;;;;;;4.65;1.30;;;7.50;83.10;;;;;;2055414;28;20050;-82
2021/03/12 00:17:55;;;;;;;7.13;1.23;;;7.50;83.10;;;;;;2066642;28;20023;-82
2021/03/12 00:18:56;;;;;;;3.83;1.08;;;7.50;83.10;;;;;;2070736;28;20511;-82
2021/03/12 00:19:57;;;;;;;5.45;1.15;;;7.50;83.10;;;;;;2079278;28;20036;-82
2021/03/12 00:20:57;;;;;;;6.65;1.27;;;7.50;83.10;;;;;;2081431;28;20060;-82
2021/03/12 00:21:58;;;;;;;5.45;1.10;;;7.50;83.00;;;;;;2072685;28;20396;-82
2021/03/12 00:22:59;;;;;;;5.05;1.20;;;7.50;83.00;;;;;;2064558;28;20125;-82
2021/03/12 00:23:59;;;;;;;8.10;1.60;;;7.50;83.00;;;;;;2071629;28;20037;-81
2021/03/12 00:25:00;;;;;;;7.88;1.30;;;7.50;82.90;;;;;;2065083;28;20026;-81
2021/03/12 00:26:02;;;;;;;5.15;1.25;;;7.50;82.90;;;;;;2064507;28;20033;-82
2021/03/12 00:27:02;;;;;;;6.85;1.85;;;7.50;82.90;;;;;;2076455;28;20098;-82
2021/03/12 00:28:05;;;;;;;6.30;1.40;;;7.50;82.80;;;;;;2081094;28;20033;-81
2021/03/12 00:29:06;;;;;;;6.90;1.00;;;7.50;82.80;;;;;;2072917;28;20048;-82
2021/03/12 00:30:09;;;;;;;8.15;1.50;;;7.50;82.80;;;;;;2065160;28;20038;-82
2021/03/12 00:31:10;;;;;;;6.30;1.13;;;7.50;82.80;;;;;;2071755;28;20035;-82
2021/03/12 00:32:12;;;;;;;5.60;1.17;;;7.50;82.70;;;;;;2065151;28;20027;-82
2021/03/12 00:33:14;;;;;;;7.30;1.20;;;7.50;82.70;;;;;;2065279;28;20096;-81
2021/03/12 00:34:15;;;;;;;7.05;1.30;;;7.50;82.70;;;;;;2072547;28;20018;-82
2021/03/12 00:35:17;;;;;;;7.18;1.40;;;7.40;82.60;;;;;;2080526;28;20282;-82
2021/03/12 00:36:18;;;;;;;7.70;1.45;;;7.40;82.60;;;;;;2080907;28;20021;-82
2021/03/12 00:37:18;;;;;;;5.90;1.30;;;7.50;82.60;;;;;;2080961;28;20495;-82
2021/03/12 00:38:19;;;;;;;4.68;1.02;;;7.50;82.60;;;;;;2072897;28;20095;-82
2021/03/12 00:39:20;;;;;;;5.95;1.10;;;7.40;82.50;;;;;;2056787;28;20023;-82
2021/03/12 00:40:26;;;;;;;6.07;1.55;;;7.40;82.50;;;;;;2064644;28;20504;-82
2021/03/12 00:41:27;;;;;;;4.75;1.00;;;7.50;82.60;;;;;;2072662;28;20396;-82
2021/03/12 00:42:28;;;;;;;6.57;1.20;;;7.40;82.50;;;;;;2069572;28;20057;-81
2021/03/12 00:43:29;;;;;;;6.18;1.35;;;7.40;82.50;;;;;;2073428;28;20034;-82
2021/03/12 00:44:29;;;;;;;7.38;1.55;;;7.40;82.40;;;;;;2072684;28;20030;-81
2021/03/12 00:45:34;;;;;;;5.65;1.20;;;7.40;82.40;;;;;;2064567;28;20061;-82
2021/03/12 00:46:35;;;;;;;6.20;1.13;;;7.40;82.40;;;;;;2063801;28;20019;-81
2021/03/12 00:47:36;;;;;;;6.60;1.45;;;7.40;82.40;;;;;;2064210;28;20042;-82
2021/03/12 00:48:37;;;;;;;5.57;1.40;;;7.40;82.40;;;;;;2064782;28;20117;-81
2021/03/12 00:49:37;;;;;;;6.43;1.20;;;7.40;82.40;;;;;;2056640;28;20030;-81
2021/03/12 00:50:39;;;;;;;4.07;0.90;;;7.40;82.50;;;;;;2056372;28;20031;-81
2021/03/12 00:51:40;;;;;;;4.57;0.98;;;7.40;82.40;;;;;;2065379;28;20173;-81
2021/03/12 00:52:41;;;;;;;4.35;1.10;;;7.40;82.40;;;;;;2072559;28;20484;-81
2021/03/12 00:53:42;;;;;;;4.38;1.15;;;7.40;82.40;;;;;;2071744;28;20156;-82
2021/03/12 00:54:42;;;;;;;5.07;1.08;;;7.40;82.40;;;;;;2072986;28;20072;-82
2021/03/12 00:55:43;;;;;;;7.65;1.50;;;7.40;82.40;;;;;;2072885;28;20037;-82
2021/03/12 00:56:44;;;;;;;5.30;1.13;;;7.40;83.00;;;;;;2072451;28;20026;-82
2021/03/12 00:57:45;;;;;;;5.43;1.00;;;7.40;82.40;;;;;;2063803;28;20042;-82
2021/03/12 00:58:45;;;;;;;6.93;1.20;;;7.40;82.40;;;;;;2064597;28;20421;-81
2021/03/12 00:59:46;;;;;;;4.32;0.88;;;7.40;82.40;;;;;;2056645;28;20042;-82
2021/03/12 01:00:46;;;;;;;4.80;1.20;;;7.40;82.30;;;;;;2048190;29;20031;-82
2021/03/12 01:01:48;;;;;;;5.47;1.13;;;7.40;82.30;;;;;;2055959;28;20031;-82
2021/03/12 01:02:49;;;;;;;4.72;1.10;;;7.40;82.40;;;;;;2072187;28;20052;-81
2021/03/12 01:03:49;;;;;;;4.00;1.13;;;7.40;82.30;;;;;;2072580;28;20033;-82
2021/03/12 01:04:50;;;;;;;4.75;0.80;;;7.40;82.30;;;;;;2072646;28;20488;-82
2021/03/12 01:05:50;;;;;;;4.07;0.93;;;7.40;82.30;;;;;;2072170;28;20034;-82
2021/03/12 01:06:51;;;;;;;4.40;1.00;;;7.40;82.40;;;;;;2055433;28;20552;-82
2021/03/12 01:07:52;;;;;;;3.88;1.10;;;7.40;82.30;;;;;;2064416;28;20415;-81
2021/03/12 01:08:53;;;;;;;5.38;1.20;;;7.40;82.30;;;;;;2089041;28;20111;-82
2021/03/12 01:09:53;;;;;;;5.47;1.20;;;7.40;82.30;;;;;;2080973;28;20435;-81
2021/03/12 01:10:54;;;;;;;6.90;1.40;;;7.40;82.20;;;;;;2081670;28;20026;-81
2021/03/12 01:11:55;;;;;;;6.95;1.20;;;7.40;82.20;;;;;;2072734;28;20029;-81
2021/03/12 01:12:56;;;;;;;3.85;1.00;;;7.40;82.20;;;;;;2071616;28;20041;-81
2021/03/12 01:13:56;;;;;;;4.88;1.15;;;7.40;82.20;;;;;;2082226;28;20116;-81
2021/03/12 01:14:57;;;;;;;4.18;0.90;;;7.40;82.20;;;;;;2074854;28;20513;-81
2021/03/12 01:15:57;;;;;;;5.03;1.13;;;7.40;82.20;;;;;;2072162;28;20509;-81
2021/03/12 01:16:58;;;;;;;6.20;1.08;;;7.40;82.10;;;;;;2074737;28;20536;-81
2021/03/12 01:17:59;;;;;;;4.47;1.13;;;7.40;82.10;;;;;;2080888;28;20076;-81
2021/03/12 01:19:00;;;;;;;5.00;1.13;;;7.30;82.10;;;;;;2080553;28;20398;-81
2021/03/12 01:20:03;;;;;;;7.97;1.30;;;7.40;82.10;;;;;;2080551;28;20040;-81
2021/03/12 01:21:04;;;;;;;4.82;0.90;;;7.40;82.10;;;;;;2072503;28;20029;-81
2021/03/12 01:22:04;;;;;;;5.85;1.15;;;7.40;82.10;;;;;;2078482;28;22246;-81
2021/03/12 01:23:06;;;;;;;4.55;1.10;;;7.40;82.10;;;;;;2076859;28;20506;-81
2021/03/12 01:24:07;;;;;;;5.60;1.42;;;7.40;82.10;;;;;;2080906;28;20029;-81
2021/03/12 01:25:10;;;;;;;4.32;1.10;;;7.30;82.10;;;;;;2069437;28;20045;-81
2021/03/12 01:26:11;;;;;;;4.63;1.23;;;7.30;82.10;;;;;;2064216;28;20062;-80
2021/03/12 01:27:12;;;;;;;7.45;1.55;;;7.30;82.10;;;;;;2063777;28;20039;-81
2021/03/12 01:28:12;;;;;;;5.63;1.38;;;7.30;82.10;;;;;;2064744;28;20121;-81
2021/03/12 01:29:13;;;;;;;8.05;1.38;;;7.30;82.00;;;;;;2056041;28;20053;-81
2021/03/12 01:30:17;;;;;;;3.83;1.02;;;7.30;82.10;;;;;;2056521;28;20026;-81
2021/03/12 01:31:17;;;;;;;6.13;1.35;;;7.30;82.10;;;;;;2071563;28;20022;-81
2021/03/12 01:32:18;;;;;;;6.38;1.20;;;7.30;82.10;;;;;;2062442;28;20026;-82
2021/03/12 01:33:19;;;;;;;4.20;0.90;;;7.30;82.10;;;;;;2047480;29;20094;-81
2021/03/12 01:34:20;;;;;;;4.55;0.90;;;7.30;82.10;;;;;;2064089;28;20089;-81
2021/03/12 01:35:20;;;;;;;3.97;0.93;;;7.30;82.10;;;;;;2064386;28;20047;-81
2021/03/12 01:36:21;;;;;;;6.30;1.30;;;7.30;82.10;;;;;;2067405;28;20022;-81
2021/03/12 01:37:22;;;;;;;6.03;1.30;;;7.30;82.10;;;;;;2080534;28;20037;-81
2021/03/12 01:38:22;;;;;;;5.80;1.23;;;7.30;82.10;;;;;;2080198;28;20030;-81
2021/03/12 01:39:23;;;;;;;4.97;1.10;;;7.30;82.10;;;;;;2080719;28;20022;-81
2021/03/12 01:40:26;;;;;;;5.95;1.30;;;7.30;82.00;;;;;;2072665;28;20088;-81
2021/03/12 01:41:26;;;;;;;4.47;1.55;;;7.30;82.00;;;;;;2072102;28;20112;-81
2021/03/12 01:42:27;;;;;;;5.82;1.30;;;7.30;82.00;;;;;;2072662;28;20042;-81
2021/03/12 01:43:28;;;;;;;7.60;1.73;;;7.30;82.00;;;;;;2081065;28;20384;-81
2021/03/12 01:44:29;;;;;;;5.70;1.30;;;7.30;82.00;;;;;;2079588;28;20034;-82
2021/03/12 01:45:33;;;;;;;7.28;1.60;;;7.30;82.60;;;;;;2072688;28;20030;-81
2021/03/12 01:46:34;;;;;;;5.28;1.30;;;7.30;82.00;;;;;;2076326;28;20056;-81
2021/03/12 01:47:34;;;;;;;5.25;1.35;;;7.30;81.90;;;;;;2072584;28;20045;-82
2021/03/12 01:48:35;;;;;;;4.53;1.38;;;7.30;81.90;;;;;;2072075;28;20053;-81
2021/03/12 01:49:35;;;;;;;4.72;1.15;;;7.30;81.90;;;;;;2072629;28;20048;-81
2021/03/12 01:50:38;;;;;;;4.25;1.08;;;7.30;82.00;;;;;;2075216;28;20168;-80
2021/03/12 01:51:39;;;;;;;7.30;1.30;;;7.30;81.90;;;;;;2080636;28;20054;-82
2021/03/12 01:52:40;;;;;;;5.38;1.50;;;7.30;82.00;;;;;;2072147;28;20093;-81
2021/03/12 01:53:41;;;;;;;6.20;1.65;;;7.30;81.90;;;;;;2063554;28;20447;-82
2021/03/12 01:54:41;;;;;;;8.10;1.40;;;7.30;81.80;;;;;;2072516;28;20723;-81
2021/03/12 01:55:43;;;;;;;5.93;1.55;;;7.30;81.80;;;;;;2072540;28;20468;-81
2021/03/12 01:56:43;;;;;;;5.95;1.38;;;7.30;81.80;;;;;;2071390;28;20518;-81
2021/03/12 01:57:44;;;;;;;7.25;1.45;;;7.30;81.80;;;;;;2072236;28;20442;-81
2021/03/12 01:58:45;;;;;;;5.85;1.35;;;7.20;81.70;;;;;;2072392;28;20030;-81
2021/03/12 01:59:46;;;;;;;7.32;1.63;;;7.20;81.70;;;;;;2072594;28;20022;-81
2021/03/12 02:00:47;;;;;;;6.55;1.40;;;7.20;81.80;;;;;;2067324;28;20034;-81
2021/03/12 02:01:48;;;;;;;5.47;1.38;;;7.20;81.70;;;;;;2063554;28;20030;-81
2021/03/12 02:02:49;;;;;;;5.45;1.50;;;7.20;81.80;;;;;;2071690;28;20527;-81
2021/03/12 02:03:49;;;;;;;6.05;1.52;;;7.20;81.70;;;;;;2064136;28;20038;-81
2021/03/12 02:04:50;;;;;;;5.43;1.30;;;7.20;81.70;;;;;;2073576;28;20105;-81
2021/03/12 02:05:52;;;;;;;5.68;1.45;;;7.20;81.80;;;;;;2055974;28;20456;-81
2021/03/12 02:06:53;;;;;;;7.82;1.70;;;7.20;81.70;;;;;;2050354;28;20054;-82
2021/03/12 02:07:55;;;;;;;5.93;1.55;;;7.20;82.30;;;;;;2072352;28;20026;-81
2021/03/12 02:08:56;;;;;;;8.50;1.65;;;7.20;81.80;;;;;;2076235;28;20044;-81
2021/03/12 02:09:56;;;;;;;5.80;1.40;;;7.20;82.40;;;;;;2072541;28;20138;-81
2021/03/12 02:10:57;;;;;;;6.63;1.50;;;7.20;81.80;;;;;;2064313;28;20492;-81
2021/03/12 02:12:16;;;;;;;5.03;1.13;;;7.20;81.80;;;;;;2064168;28;20037;-81
2021/03/12 02:13:32;;;;;;;4.80;1.20;;;7.20;81.80;;;;;;2079486;28;20037;-82
2021/03/12 02:14:42;;;;;;;6.85;1.60;;;7.20;81.80;;;;;;2072437;28;20475;-82
2021/03/12 02:16:05;;;;;;;6.88;1.50;;;7.20;81.90;;;;;;2073575;28;20037;-81
2021/03/12 02:17:14;;;;;;;8.95;1.70;;;7.20;81.80;;;;;;2080608;28;20517;-82
2021/03/12 02:18:32;;;;;;;6.07;1.27;;;7.20;81.90;;;;;;2078939;28;20036;-81
2021/03/12 02:19:51;;;;;;;5.00;1.30;;;7.10;81.80;;;;;;2080639;28;20507;-82
2021/03/12 02:21:07;;;;;;;6.20;1.50;;;7.10;81.80;;;;;;2062378;28;20502;-81
2021/03/12 02:22:10;;;;;;;5.38;1.65;;;7.10;81.80;;;;;;2066434;28;20023;-82
2021/03/12 02:23:10;;;;;;;6.10;1.35;;;7.10;81.80;;;;;;2063485;28;20061;-82
2021/03/12 02:24:20;;;;;;;7.20;1.50;;;7.10;81.80;;;;;;2068500;28;20026;-81
2021/03/12 02:25:22;;;;;;;7.72;1.52;;;7.10;81.80;;;;;;2072460;28;20558;-82
2021/03/12 02:26:49;;;;;;;5.93;1.50;;;7.10;81.80;;;;;;2072659;28;20048;-82
2021/03/12 02:27:49;;;;;;;6.95;1.58;;;7.10;81.80;;;;;;2072531;28;20125;-82
2021/03/12 02:28:53;;;;;;;6.95;1.40;;;7.10;82.40;;;;;;2076974;28;20533;-81
2021/03/12 02:29:58;;;;;;;7.05;1.60;;;7.10;81.90;;;;;;2078335;28;20021;-82
2021/03/12 02:30:59;;;;;;;5.10;1.20;;;7.10;81.90;;;;;;2085870;28;20052;-82
2021/03/12 02:32:02;;;;;;;5.10;1.10;;;7.10;81.90;;;;;;2081908;28;20026;-82
2021/03/12 02:33:04;;;;;;;6.80;1.45;;;7.10;81.90;;;;;;2061619;28;20027;-82
2021/03/12 02:34:10;;;;;;;5.65;1.27;;;7.10;81.90;;;;;;2066372;28;20030;-82
2021/03/12 02:35:16;;;;;;;7.43;2.00;;;7.10;81.90;;;;;;2075543;28;20094;-82
2021/03/12 02:36:20;;;;;;;5.85;1.50;;;7.10;81.90;;;;;;2069119;28;20038;-81
2021/03/12 02:37:23;;;;;;;6.60;1.63;;;7.10;81.90;;;;;;2080725;28;20037;-81
2021/03/12 02:38:27;;;;;;;6.50;1.45;;;7.10;82.00;;;;;;2081418;28;20017;-82
2021/03/12 02:39:32;;;;;;;6.72;1.38;;;7.10;81.90;;;;;;2080906;28;20048;-82
2021/03/12 02:40:34;;;;;;;7.57;1.60;;;7.10;82.00;;;;;;2066873;28;20069;-82
2021/03/12 02:41:35;;;;;;;7.25;1.48;;;7.10;82.00;;;;;;2067429;28;20056;-82
2021/03/12 02:42:38;;;;;;;5.45;1.30;;;7.10;82.00;;;;;;2068081;28;20105;-82
2021/03/12 02:43:40;;;;;;;5.22;1.35;;;7.10;82.00;;;;;;2069536;28;20034;-81
2021/03/12 02:44:42;;;;;;;4.68;1.23;;;7.10;82.00;;;;;;2081344;28;20029;-81
2021/03/12 02:45:44;;;;;;;8.45;2.00;;;7.10;82.00;;;;;;2067089;28;20527;-82
2021/03/12 02:46:47;;;;;;;6.10;1.38;;;7.10;82.00;;;;;;2069529;28;20473;-82
2021/03/12 02:47:48;;;;;;;8.93;1.50;;;7.10;82.00;;;;;;2080463;28;20107;-82
2021/03/12 02:48:49;;;;;;;6.05;1.40;;;7.10;82.00;;;;;;2071959;28;20038;-82
2021/03/12 02:49:51;;;;;;;6.35;1.20;;;7.10;82.10;;;;;;2056507;28;20489;-82
2021/03/12 02:50:52;;;;;;;6.95;1.63;;;7.00;82.00;;;;;;2062335;28;20746;-82
2021/03/12 02:51:55;;;;;;;7.47;1.40;;;7.00;82.10;;;;;;2064203;28;20042;-81
2021/03/12 02:52:56;;;;;;;5.60;1.23;;;7.00;82.10;;;;;;2080157;28;20028;-82
2021/03/12 02:53:57;;;;;;;4.60;1.20;;;7.00;82.00;;;;;;2080188;28;20034;-82
2021/03/12 02:54:59;;;;;;;6.75;1.25;;;7.00;82.10;;;;;;2071735;28;20484;-83
2021/03/12 02:56:00;;;;;;;4.88;1.17;;;7.00;82.10;;;;;;2062079;28;20110;-85
2021/03/12 02:57:01;;;;;;;7.15;1.27;;;7.00;82.10;;;;;;2055918;28;20476;-82
2021/03/12 02:58:02;;;;;;;6.38;1.42;;;7.00;82.10;;;;;;2073433;28;20472;-81
2021/03/12 02:59:03;;;;;;;6.30;1.20;;;7.00;82.10;;;;;;2071298;28;20088;-81
2021/03/12 03:00:06;;;;;;;3.95;1.20;;;7.00;82.10;;;;;;2074041;28;20416;-81
2021/03/12 03:01:08;;;;;;;8.07;1.48;;;7.00;82.20;;;;;;2073865;28;20033;-81
2021/03/12 03:02:09;;;;;;;5.65;1.20;;;7.00;82.20;;;;;;2066341;28;20031;-81
2021/03/12 03:03:10;;;;;;;5.68;1.25;;;7.00;82.20;;;;;;2069473;28;20031;-82
2021/03/12 03:04:11;;;;;;;4.97;1.30;;;7.00;82.20;;;;;;2067797;28;20030;-80
2021/03/12 03:05:13;;;;;;;5.28;1.27;;;7.00;82.20;;;;;;2066272;28;20504;-82
2021/03/12 03:06:15;;;;;;;6.35;1.45;;;7.00;82.20;;;;;;2068070;28;20027;-80
2021/03/12 03:07:18;;;;;;;6.60;1.30;;;7.00;82.20;;;;;;2073470;28;20033;-81
2021/03/12 03:08:19;;;;;;;5.85;1.20;;;7.00;82.20;;;;;;2070949;28;20026;-81
2021/03/12 03:09:20;;;;;;;6.30;1.40;;;7.00;82.70;;;;;;2081733;28;20037;-81
2021/03/12 03:10:23;;;;;;;5.45;1.00;;;7.00;82.20;;;;;;2081942;28;20073;-81
2021/03/12 03:11:25;;;;;;;5.60;1.42;;;7.00;82.20;;;;;;2082318;28;20030;-81
2021/03/12 03:12:27;;;;;;;6.57;1.30;;;7.00;82.20;;;;;;2073005;28;20025;-81
2021/03/12 03:13:38;;;;;;;4.43;1.10;;;7.00;82.10;;;;;;2073508;28;20125;-80
2021/03/12 03:14:39;;;;;;;6.78;1.10;;;7.00;82.10;;;;;;2079850;28;20059;-81
2021/03/12 03:15:42;;;;;;;6.10;1.35;;;7.00;82.10;;;;;;2080824;28;20025;-81
2021/03/12 03:16:44;;;;;;;5.05;1.23;;;6.90;82.00;;;;;;2082072;28;20022;-81
2021/03/12 03:17:46;;;;;;;7.70;1.17;;;7.00;82.70;;;;;;2081431;28;20540;-81
2021/03/12 03:18:48;;;;;;;9.73;1.60;;;7.00;82.10;;;;;;2081761;28;20075;-81
2021/03/12 03:19:50;;;;;;;7.55;1.75;;;7.00;82.10;;;;;;2082450;28;20030;-81
2021/03/12 03:20:52;;;;;;;5.28;1.20;;;6.90;82.10;;;;;;2081998;28;20032;-81
2021/03/12 03:21:53;;;;;;;7.35;1.38;;;6.90;82.10;;;;;;2081650;28;20050;-81
2021/03/12 03:22:53;;;;;;;6.80;1.20;;;6.90;82.10;;;;;;2081296;28;20112;-81
2021/03/12 03:23:54;;;;;;;6.57;1.30;;;6.90;82.10;;;;;;2080575;28;20114;-81
2021/03/12 03:24:55;;;;;;;6.68;1.40;;;6.90;82.10;;;;;;2081516;28;20026;-81
2021/03/12 03:25:56;;;;;;;6.43;1.45;;;6.90;82.10;;;;;;2068677;28;20498;-81
2021/03/12 03:26:57;;;;;;;6.15;1.15;;;6.90;82.10;;;;;;2072985;28;20516;-81
2021/03/12 03:27:58;;;;;;;6.30;1.20;;;6.90;82.20;;;;;;2077744;28;20127;-81
2021/03/12 03:28:58;;;;;;;9.18;1.50;;;6.90;82.20;;;;;;2075930;28;20026;-81
2021/03/12 03:29:59;;;;;;;6.57;1.33;;;6.90;82.20;;;;;;2073451;28;20037;-81
2021/03/12 03:31:01;;;;;;;5.47;1.08;;;6.90;82.20;;;;;;2081923;28;20032;-82
2021/03/12 03:32:02;;;;;;;4.95;1.00;;;6.90;82.20;;;;;;2072690;28;20191;-81
2021/03/12 03:33:03;;;;;;;5.43;1.33;;;6.90;82.20;;;;;;2073520;28;20184;-82
2021/03/12 03:34:03;;;;;;;4.38;0.90;;;6.90;82.20;;;;;;2069531;28;20513;-81
2021/03/12 03:35:09;;;;;;;6.15;0.98;;;6.90;82.20;;;;;;2071568;28;20481;-81
2021/03/12 03:36:10;;;;;;;5.88;1.27;;;6.90;82.20;;;;;;2065383;28;20520;-81
2021/03/12 03:37:12;;;;;;;5.28;1.20;;;6.90;82.20;;;;;;2071649;28;20018;-81
2021/03/12 03:38:13;;;;;;;6.53;1.17;;;6.90;82.20;;;;;;2071716;28;20080;-81
2021/03/12 03:39:14;;;;;;;5.65;1.20;;;6.90;82.20;;;;;;2072492;28;20030;-81
2021/03/12 03:40:15;;;;;;;5.65;1.17;;;6.90;82.10;;;;;;2073461;28;20026;-82
2021/03/12 03:41:18;;;;;;;6.80;1.35;;;6.90;82.10;;;;;;2073529;28;20030;-81
2021/03/12 03:42:20;;;;;;;6.57;1.08;;;6.90;82.20;;;;;;2080831;28;20128;-81
2021/03/12 03:43:30;;;;;;;6.57;1.20;;;6.90;82.10;;;;;;2081040;28;20037;-81
2021/03/12 03:44:33;;;;;;;6.78;1.30;;;6.90;82.10;;;;;;2078023;28;20021;-81
2021/03/12 03:45:35;;;;;;;5.07;1.23;;;6.90;82.10;;;;;;2085739;28;20048;-81
2021/03/12 03:46:38;;;;;;;6.28;0.95;;;6.90;82.10;;;;;;2076268;28;20109;-81
2021/03/12 03:47:40;;;;;;;9.52;1.40;;;6.80;82.10;;;;;;2073379;28;20041;-81
2021/03/12 03:48:42;;;;;;;6.55;1.35;;;6.80;82.00;;;;;;2072817;28;20046;-81
2021/03/12 03:49:43;;;;;;;6.88;1.20;;;6.80;82.10;;;;;;2072450;28;20558;-81
2021/03/12 03:50:45;;;;;;;7.60;1.42;;;6.80;82.10;;;;;;2077484;28;20087;-81
2021/03/12 03:51:46;;;;;;;6.85;1.25;;;6.80;82.10;;;;;;2080521;28;20234;-81
2021/03/12 03:52:48;;;;;;;6.40;1.42;;;6.80;82.10;;;;;;2080298;28;20037;-81
2021/03/12 03:53:49;;;;;;;6.15;1.27;;;6.80;82.20;;;;;;2067428;28;20532;-81
2021/03/12 03:54:55;;;;;;;6.28;1.30;;;6.80;82.20;;;;;;2066358;28;20033;-81
2021/03/12 03:55:59;;;;;;;7.40;0.98;;;6.80;82.20;;;;;;2064119;28;20026;-81
2021/03/12 03:57:01;;;;;;;4.18;1.05;;;6.80;82.20;;;;;;2065046;28;20031;-81
2021/03/12 03:58:03;;;;;;;3.70;1.08;;;6.80;82.20;;;;;;2080921;28;20038;-81
2021/03/12 03:59:04;;;;;;;7.10;1.17;;;6.80;82.30;;;;;;2080459;28;20021;-80
2021/03/12 04:00:07;;;;;;;4.25;0.93;;;6.80;82.20;;;;;;2080556;28;20041;-81
2021/03/12 04:01:09;;;;;;;5.32;1.00;;;6.80;82.30;;;;;;2081220;28;20095;-81
2021/03/12 04:02:12;;;;;;;6.53;1.55;;;6.80;82.20;;;;;;2084826;28;20040;-82
2021/03/12 04:03:14;;;;;;;6.10;1.27;;;6.80;82.30;;;;;;2080210;28;20411;-81
2021/03/12 04:04:15;;;;;;;6.80;1.15;;;6.70;82.20;;;;;;2072854;28;20026;-82
2021/03/12 04:05:17;;;;;;;5.90;0.85;;;6.80;82.70;;;;;;2073153;28;20117;-81
2021/03/12 04:06:18;;;;;;;5.22;1.10;;;6.70;82.20;;;;;;2073227;28;20507;-82
2021/03/12 04:07:20;;;;;;;6.53;1.40;;;6.70;82.30;;;;;;2064647;28;20069;-82
2021/03/12 04:08:22;;;;;;;5.93;0.90;;;6.70;82.30;;;;;;2064369;28;20034;-81
2021/03/12 04:09:23;;;;;;;5.80;0.93;;;6.70;82.30;;;;;;2082003;28;20377;-81
2021/03/12 04:10:24;;;;;;;6.63;0.95;;;6.70;82.30;;;;;;2070841;28;20053;-80
2021/03/12 04:11:25;;;;;;;4.80;1.10;;;6.70;82.30;;;;;;2072961;28;20597;-82
2021/03/12 04:12:26;;;;;;;3.83;1.27;;;6.70;82.30;;;;;;2065070;28;20456;-81
2021/03/12 04:13:28;;;;;;;6.55;1.20;;;6.70;82.40;;;;;;2057307;28;20538;-81
2021/03/12 04:14:29;;;;;;;6.63;1.33;;;6.70;82.40;;;;;;2054974;28;20125;-81
2021/03/12 04:15:30;;;;;;;6.32;1.30;;;6.70;82.40;;;;;;2057081;28;20493;-81
2021/03/12 04:16:31;;;;;;;4.65;1.05;;;6.70;82.50;;;;;;2072723;28;20600;-81
2021/03/12 04:17:33;;;;;;;7.15;1.10;;;6.60;82.40;;;;;;2069944;28;20029;-82
2021/03/12 04:18:34;;;;;;;4.90;1.02;;;6.60;82.40;;;;;;2073103;28;20033;-82
2021/03/12 04:19:36;;;;;;;4.88;1.15;;;6.60;82.50;;;;;;2081449;28;20056;-82
2021/03/12 04:20:37;;;;;;;7.68;1.10;;;6.60;82.50;;;;;;2072838;28;20488;-81
2021/03/12 04:21:38;;;;;;;5.72;1.25;;;6.60;82.50;;;;;;2072756;28;20029;-82
2021/03/12 04:22:40;;;;;;;4.28;1.00;;;6.50;82.60;;;;;;2073196;28;20141;-82
2021/03/12 04:23:41;;;;;;;6.10;1.13;;;6.50;82.60;;;;;;2065044;28;20152;-81
2021/03/12 04:24:43;;;;;;;5.15;1.15;;;6.50;82.60;;;;;;2064135;28;20126;-81
2021/03/12 04:25:45;;;;;;;3.83;1.10;;;6.50;82.70;;;;;;2064540;28;20037;-82
2021/03/12 04:26:46;;;;;;;2.97;0.90;;;6.50;82.70;;;;;;2073107;28;20388;-82
2021/03/12 04:27:48;;;;;;;5.78;1.40;;;6.50;82.70;;;;;;2072412;28;20365;-81
2021/03/12 04:28:49;;;;;;;5.18;0.90;;;6.40;82.70;;;;;;2072796;28;20443;-82
2021/03/12 04:29:50;;;;;;;6.10;1.30;;;6.40;82.80;;;;;;2063355;28;20018;-82
2021/03/12 04:30:51;;;;;;;4.07;1.00;;;6.40;82.90;;;;;;2066099;28;20042;-82
2021/03/12 04:31:52;;;;;;;5.03;0.90;;;6.40;82.90;;;;;;2064498;28;20065;-81
2021/03/12 04:32:53;;;;;;;4.10;0.90;;;6.40;82.90;;;;;;2065063;28;20037;-82
2021/03/12 04:33:55;;;;;;;4.82;0.90;;;6.30;82.80;;;;;;2064544;28;20026;-81
2021/03/12 04:34:55;;;;;;;7.50;1.00;;;6.30;82.80;;;;;;2064726;28;20041;-82
2021/03/12 04:35:57;;;;;;;3.88;1.05;;;6.30;82.80;;;;;;2063438;28;20081;-81
2021/03/12 04:36:58;;;;;;;5.22;1.00;;;6.30;82.90;;;;;;2063971;28;20025;-82
2021/03/12 04:37:59;;;;;;;3.35;1.00;;;6.30;82.90;;;;;;2064934;28;20570;-81
2021/03/12 04:39:00;;;;;;;5.78;1.10;;;6.20;82.90;;;;;;2064321;28;20034;-81
2021/03/12 04:40:02;;;;;;;3.67;0.90;;;6.20;83.00;;;;;;2065344;28;20408;-82
2021/03/12 04:41:03;;;;;;;3.80;0.90;;;6.20;83.00;;;;;;2076909;28;20049;-82
2021/03/12 04:42:05;;;;;;;5.63;0.93;;;6.10;83.00;;;;;;2081139;28;20510;-82
2021/03/12 04:43:09;;;;;;;5.88;1.15;;;6.10;83.10;;;;;;2076526;28;20611;-82
2021/03/12 04:44:11;;;;;;;4.93;1.10;;;6.10;83.20;;;;;;2070109;28;20393;-82
2021/03/12 04:45:12;;;;;;;4.45;1.23;;;6.10;83.20;;;;;;2069922;28;20072;-82
2021/03/12 04:46:13;;;;;;;5.00;1.10;;;6.10;83.20;;;;;;2065055;28;20481;-82
2021/03/12 04:47:14;;;;;;;3.22;0.90;;;6.00;83.20;;;;;;2084829;28;20064;-82
2021/03/12 04:48:16;;;;;;;5.47;1.00;;;6.00;83.20;;;;;;2079647;28;20069;-82
2021/03/12 04:49:18;;;;;;;6.28;1.10;;;6.00;83.30;;;;;;2081080;28;20038;-82
2021/03/12 04:50:19;;;;;;;4.32;0.98;;;6.00;83.30;;;;;;2067081;28;20105;-82
2021/03/12 04:51:20;;;;;;;3.95;1.00;;;6.00;83.30;;;;;;2072517;28;20080;-82
2021/03/12 04:52:21;;;;;;;6.93;0.82;;;5.90;83.30;;;;;;2064844;28;20029;-82
2021/03/12 04:53:22;;;;;;;4.50;1.08;;;5.90;83.40;;;;;;2055984;28;20034;-82
2021/03/12 04:54:23;;;;;;;4.78;0.90;;;5.90;83.40;;;;;;2064555;28;20054;-81
2021/03/12 04:55:24;;;;;;;5.20;0.90;;;5.90;83.40;;;;;;2051686;28;20134;-82
2021/03/12 04:56:25;;;;;;;5.70;1.20;;;5.90;84.00;;;;;;2063380;28;20485;-82
2021/03/12 04:57:26;;;;;;;2.63;0.70;;;5.90;83.50;;;;;;2080888;28;20042;-82
2021/03/12 04:58:27;;;;;;;6.15;1.10;;;5.90;83.50;;;;;;2067600;28;20027;-82
2021/03/12 04:59:28;;;;;;;2.45;0.82;;;5.80;83.50;;;;;;2064466;28;20030;-82
2021/03/12 05:00:31;;;;;;;4.35;0.85;;;5.80;83.50;;;;;;2077063;28;20022;-81
2021/03/12 05:01:34;;;;;;;3.53;0.88;;;5.80;83.50;;;;;;2064658;28;20477;-81
2021/03/12 05:02:35;;;;;;;5.20;0.85;;;5.80;84.20;;;;;;2071455;28;20029;-81
2021/03/12 05:03:40;;;;;;;4.00;1.00;;;5.80;83.60;;;;;;2083128;28;20072;-82
2021/03/12 05:04:41;;;;;;;5.38;1.20;;;5.80;83.60;;;;;;2081479;28;20088;-82
2021/03/12 05:05:43;;;;;;;4.55;1.25;;;5.80;83.70;;;;;;2072706;28;20030;-82
2021/03/12 05:06:45;;;;;;;5.55;1.10;;;5.80;84.10;;;;;;2080971;28;20021;-82
2021/03/12 05:07:46;;;;;;;10.43;1.52;;;5.80;83.70;;;;;;2086823;28;20021;-82
2021/03/12 05:08:47;;;;;;;4.05;1.02;;;5.80;83.70;;;;;;2072780;28;20030;-81
2021/03/12 05:09:48;;;;;;;6.68;1.10;;;5.80;83.70;;;;;;2072126;28;20391;-82
2021/03/12 05:11:04;;;;;;;5.57;1.20;;;5.70;83.70;;;;;;2079991;28;20169;-82
2021/03/12 05:12:05;;;;;;;7.63;1.45;;;5.70;83.70;;;;;;2078587;28;20207;-82
2021/03/12 05:13:05;;;;;;;4.07;1.05;;;5.70;83.80;;;;;;2079297;28;20162;-81
2021/03/12 05:14:07;;;;;;;6.05;1.48;;;5.70;83.80;;;;;;2072058;28;20037;-81
2021/03/12 05:15:08;;;;;;;5.28;1.15;;;5.70;83.80;;;;;;2080707;28;20025;-81
2021/03/12 05:16:08;;;;;;;6.38;1.08;;;5.70;83.90;;;;;;2075959;28;20484;-81
2021/03/12 05:17:09;;;;;;;3.63;0.98;;;5.70;83.90;;;;;;2071936;28;20029;-81
2021/03/12 05:18:10;;;;;;;5.88;0.93;;;5.70;83.90;;;;;;2077875;28;20036;-81
2021/03/12 05:19:10;;;;;;;6.68;1.77;;;5.60;83.90;;;;;;2071507;28;20022;-82
2021/03/12 05:20:11;;;;;;;3.13;0.90;;;5.60;83.90;;;;;;2064186;28;20030;-81
2021/03/12 05:21:14;;;;;;;6.72;0.98;;;5.70;83.90;;;;;;2056631;28;20038;-82
2021/03/12 05:22:15;;;;;;;4.30;0.90;;;5.60;84.00;;;;;;2080764;28;20168;-82
2021/03/12 05:23:17;;;;;;;5.60;1.10;;;5.60;84.00;;;;;;2085281;28;20114;-81
2021/03/12 05:24:18;;;;;;;6.05;1.00;;;5.60;84.00;;;;;;2080140;28;20029;-81
2021/03/12 05:25:18;;;;;;;5.85;1.00;;;5.60;84.00;;;;;;2064801;28;20026;-82
2021/03/12 05:26:20;;;;;;;5.60;1.08;;;5.60;84.10;;;;;;2064198;28;20041;-81
2021/03/12 05:27:20;;;;;;;5.28;1.27;;;5.60;84.00;;;;;;2080482;28;20026;-81